Time;durP1;ratioP1;P1;durP2;ratioP2;P2;SDS_P1;SDS_P2;PMS_P1;PMS_P2;Temp;Humidity;BMP_temperature;BMP_pressure;BME280_temperature;BME280_humidity;BME280_pressure;Samples;Min_cycle;Max_cycle;Signal;HPM_P1;HPM_P2
2022/03/30 00:00:47;;;;;;;17.77;10.32;;;;;;;;;;6207214;28;20042;-70
2022/03/30 00:03:50;;;;;;;20.88;10.15;;;;;;;;;;6215593;28;20180;-68
2022/03/30 00:06:51;;;;;;;18.75;10.20;;;;;;;;;;6213100;28;20375;-67
2022/03/30 00:09:53;;;;;;;16.67;9.93;;;;;;;;;;6212465;28;20184;-70
2022/03/30 00:12:56;;;;;;;18.95;11.00;;;;;;;;;;6209395;28;20120;-70
2022/03/30 00:15:58;;;;;;;17.23;9.25;;;;;;;;;;6210649;28;20039;-70
2022/03/30 00:19:01;;;;;;;22.80;11.68;;;;;;;;;;6207768;28;20431;-68
2022/03/30 00:22:02;;;;;;;18.95;11.05;;;;;;;;;;6208287;28;20204;-67
2022/03/30 00:25:05;;;;;;;26.20;13.75;;;;;;;;;;6203249;28;20068;-67
2022/03/30 00:28:08;;;;;;;28.13;15.82;;;;;;;;;;6202613;28;20047;-67
2022/03/30 00:31:11;;;;;;;30.70;20.40;;;;;;;;;;6211063;28;20129;-67
2022/03/30 00:34:14;;;;;;;33.58;21.20;;;;;;;;;;6211982;28;20050;-67
2022/03/30 00:37:15;;;;;;;31.67;21.77;;;;;;;;;;6189936;28;20185;-67
2022/03/30 00:40:17;;;;;;;34.17;23.35;;;;;;;;;;6192068;28;20600;-67
2022/03/30 00:43:19;;;;;;;37.40;24.60;;;;;;;;;;6191207;28;20295;-66
2022/03/30 00:46:21;;;;;;;42.38;25.95;;;;;;;;;;6187792;28;20054;-67
2022/03/30 00:49:23;;;;;;;36.35;24.67;;;;;;;;;;6188375;28;20055;-68
2022/03/30 00:52:25;;;;;;;38.13;24.27;;;;;;;;;;6185702;28;20074;-67
2022/03/30 00:55:27;;;;;;;44.03;28.00;;;;;;;;;;6183647;28;20140;-67
2022/03/30 00:58:29;;;;;;;40.22;24.98;;;;;;;;;;6181970;28;20058;-68
2022/03/30 01:01:30;;;;;;;41.33;25.30;;;;;;;;;;6184766;28;20075;-67
2022/03/30 01:04:34;;;;;;;41.92;26.50;;;;;;;;;;6179462;28;20134;-67
2022/03/30 01:07:35;;;;;;;38.17;26.93;;;;;;;;;;6178379;28;20481;-67
2022/03/30 01:10:37;;;;;;;38.50;25.15;;;;;;;;;;6182452;28;20519;-67
2022/03/30 01:13:39;;;;;;;36.60;25.27;;;;;;;;;;6193020;28;20051;-66
2022/03/30 01:16:41;;;;;;;43.92;25.33;;;;;;;;;;6192261;28;20129;-67
2022/03/30 01:19:44;;;;;;;39.88;25.17;;;;;;;;;;6192034;28;20054;-67
2022/03/30 01:22:47;;;;;;;38.00;24.83;;;;;;;;;;6187936;28;20403;-67
2022/03/30 01:25:48;;;;;;;38.67;24.95;;;;;;;;;;6184000;28;20470;-67
2022/03/30 01:28:50;;;;;;;37.88;25.55;;;;;;;;;;6184132;28;20125;-67
2022/03/30 01:35:11;;;;;;;37.50;24.45;;;;;;;;;;6181128;28;20500;-66
2022/03/30 01:38:14;;;;;;;35.78;23.70;;;;;;;;;;6183543;28;20051;-67
2022/03/30 01:41:16;;;;;;;36.67;24.58;;;;;;;;;;6176387;28;20108;-66
2022/03/30 01:44:17;;;;;;;31.52;22.38;;;;;;;;;;6177936;28;20153;-67
2022/03/30 01:47:19;;;;;;;35.22;21.95;;;;;;;;;;6183345;28;20134;-67
2022/03/30 01:50:21;;;;;;;32.13;22.77;;;;;;;;;;6185810;28;20112;-67
2022/03/30 01:53:24;;;;;;;33.92;22.77;;;;;;;;;;6189738;28;20112;-66
2022/03/30 01:56:26;;;;;;;34.63;24.35;;;;;;;;;;6189232;28;20042;-67
2022/03/30 01:59:28;;;;;;;34.00;22.55;;;;;;;;;;6184007;28;20120;-67
2022/03/30 02:02:29;;;;;;;35.42;24.27;;;;;;;;;;6185794;28;20054;-67
2022/03/30 02:05:32;;;;;;;35.90;22.50;;;;;;;;;;6182647;28;20125;-67
2022/03/30 02:08:35;;;;;;;33.75;22.45;;;;;;;;;;6178059;28;20409;-67
2022/03/30 02:11:36;;;;;;;35.63;23.77;;;;;;;;;;6181717;28;20516;-67
2022/03/30 02:14:38;;;;;;;34.95;22.17;;;;;;;;;;6179294;28;20060;-67
2022/03/30 02:17:40;;;;;;;35.92;23.10;;;;;;;;;;6178854;28;20050;-67
2022/03/30 02:20:42;;;;;;;35.70;23.38;;;;;;;;;;6178191;28;20051;-66
2022/03/30 02:23:46;;;;;;;38.28;22.67;;;;;;;;;;6182004;28;20046;-67
2022/03/30 02:26:48;;;;;;;39.42;23.55;;;;;;;;;;6180161;28;20062;-67
2022/03/30 02:29:51;;;;;;;34.22;23.13;;;;;;;;;;6178520;28;20070;-67
2022/03/30 02:32:53;;;;;;;33.95;21.98;;;;;;;;;;6185487;28;20094;-66
2022/03/30 02:35:54;;;;;;;33.55;23.02;;;;;;;;;;6185317;28;20054;-67
2022/03/30 02:38:57;;;;;;;39.65;22.00;;;;;;;;;;6183473;28;20135;-66
2022/03/30 02:41:59;;;;;;;34.28;22.23;;;;;;;;;;6176510;28;20136;-66
2022/03/30 02:45:01;;;;;;;32.97;22.13;;;;;;;;;;6180093;28;20046;-66
2022/03/30 02:48:22;;;;;;;32.35;21.98;;;;;;;;;;6180169;28;20203;-68
2022/03/30 02:51:27;;;;;;;33.97;22.35;;;;;;;;;;6179587;28;20043;-67
2022/03/30 02:54:30;;;;;;;31.52;22.23;;;;;;;;;;6176348;28;20050;-67
2022/03/30 02:57:32;;;;;;;37.63;23.50;;;;;;;;;;6181363;28;20130;-67
2022/03/30 03:00:33;;;;;;;30.75;21.73;;;;;;;;;;6178848;28;20158;-67
2022/03/30 03:03:35;;;;;;;38.75;24.42;;;;;;;;;;6177437;28;20529;-67
2022/03/30 03:06:36;;;;;;;35.92;22.95;;;;;;;;;;6179007;28;20124;-67
2022/03/30 03:09:39;;;;;;;30.98;21.90;;;;;;;;;;6178827;28;20186;-67
2022/03/30 03:12:41;;;;;;;33.85;22.45;;;;;;;;;;6185034;28;20604;-68
2022/03/30 03:15:43;;;;;;;35.30;23.50;;;;;;;;;;6185420;28;20126;-67
2022/03/30 03:18:44;;;;;;;35.15;23.33;;;;;;;;;;6182534;28;20141;-67
2022/03/30 03:21:46;;;;;;;37.03;23.25;;;;;;;;;;6186343;28;20181;-67
2022/03/30 03:24:49;;;;;;;34.35;21.42;;;;;;;;;;6184874;28;20058;-68
2022/03/30 03:27:50;;;;;;;32.00;23.05;;;;;;;;;;6181907;28;20137;-67
2022/03/30 03:30:52;;;;;;;33.20;22.88;;;;;;;;;;6186245;28;20515;-68
2022/03/30 03:33:53;;;;;;;30.92;22.20;;;;;;;;;;6187565;28;20189;-67
2022/03/30 03:36:55;;;;;;;37.47;23.10;;;;;;;;;;6185109;28;20137;-67
2022/03/30 03:39:58;;;;;;;32.10;22.77;;;;;;;;;;6185441;28;20055;-67
2022/03/30 03:43:00;;;;;;;34.72;23.33;;;;;;;;;;6182743;28;20125;-67
2022/03/30 03:46:02;;;;;;;32.70;22.67;;;;;;;;;;6181779;28;20054;-68
2022/03/30 03:49:03;;;;;;;35.10;22.55;;;;;;;;;;6181251;28;20194;-68
2022/03/30 03:52:07;;;;;;;35.10;22.85;;;;;;;;;;6187876;28;20084;-67
2022/03/30 03:55:11;;;;;;;37.53;23.40;;;;;;;;;;6185504;28;20061;-67
2022/03/30 03:58:12;;;;;;;35.63;23.55;;;;;;;;;;6184421;28;20087;-67
2022/03/30 04:01:14;;;;;;;35.10;23.92;;;;;;;;;;6186049;28;20173;-67
2022/03/30 04:04:15;;;;;;;37.40;24.17;;;;;;;;;;6182083;28;20065;-67
2022/03/30 04:07:17;;;;;;;38.55;23.67;;;;;;;;;;6182801;28;20046;-67
2022/03/30 04:10:20;;;;;;;32.75;24.17;;;;;;;;;;6185541;28;20046;-67
2022/03/30 04:13:21;;;;;;;38.58;24.98;;;;;;;;;;6181932;28;20133;-67
2022/03/30 04:16:23;;;;;;;37.78;25.27;;;;;;;;;;6183091;28;20109;-68
2022/03/30 04:19:25;;;;;;;39.50;23.70;;;;;;;;;;6184693;28;20517;-67
2022/03/30 04:22:26;;;;;;;36.00;24.30;;;;;;;;;;6184582;28;20050;-67
2022/03/30 04:25:29;;;;;;;41.08;24.92;;;;;;;;;;6184541;28;20077;-67
2022/03/30 04:28:31;;;;;;;34.40;23.63;;;;;;;;;;6183357;28;20546;-68
2022/03/30 04:31:33;;;;;;;40.30;25.70;;;;;;;;;;6188420;28;20050;-67
2022/03/30 04:34:34;;;;;;;40.97;25.00;;;;;;;;;;6187988;28;20069;-67
2022/03/30 04:37:36;;;;;;;36.47;25.35;;;;;;;;;;6181187;28;20145;-67
2022/03/30 04:40:39;;;;;;;40.08;25.83;;;;;;;;;;6183880;28;20129;-67
2022/03/30 04:43:40;;;;;;;39.50;25.15;;;;;;;;;;6190342;28;20490;-67
2022/03/30 04:46:42;;;;;;;41.50;25.33;;;;;;;;;;6188907;28;20050;-67
2022/03/30 04:49:44;;;;;;;40.42;25.40;;;;;;;;;;6184189;28;20493;-67
2022/03/30 04:52:45;;;;;;;37.47;24.70;;;;;;;;;;6180288;28;20122;-67
2022/03/30 04:55:48;;;;;;;40.80;25.83;;;;;;;;;;6181600;28;20176;-67
2022/03/30 04:58:50;;;;;;;36.45;24.63;;;;;;;;;;6181833;28;20122;-68
2022/03/30 05:01:52;;;;;;;36.80;24.25;;;;;;;;;;6177733;28;20065;-67
2022/03/30 05:04:53;;;;;;;39.30;25.98;;;;;;;;;;6178997;28;20057;-67
2022/03/30 05:07:56;;;;;;;43.30;26.80;;;;;;;;;;6179312;28;20473;-67
2022/03/30 05:10:59;;;;;;;37.25;26.40;;;;;;;;;;6184592;28;20078;-68
2022/03/30 05:14:00;;;;;;;44.10;27.27;;;;;;;;;;6185070;28;20047;-66
2022/03/30 05:17:02;;;;;;;45.10;28.10;;;;;;;;;;6188176;28;20508;-65
2022/03/30 05:20:06;;;;;;;44.38;28.65;;;;;;;;;;6192064;28;20038;-67
2022/03/30 05:23:08;;;;;;;;;;;;;;;;;;6186080;28;20509;-66
2022/03/30 05:26:11;;;;;;;43.13;27.85;;;;;;;;;;6185839;28;19922;-67
2022/03/30 05:29:13;;;;;;;46.25;28.10;;;;;;;;;;6184611;28;20104;-67
2022/03/30 05:32:14;;;;;;;42.50;27.80;;;;;;;;;;6184407;28;20276;-68
2022/03/30 05:35:16;;;;;;;43.55;28.30;;;;;;;;;;6181668;28;20529;-67
2022/03/30 05:38:18;;;;;;;43.88;30.08;;;;;;;;;;6180517;28;20144;-67
2022/03/30 05:41:20;;;;;;;49.58;29.92;;;;;;;;;;6179987;28;20528;-67
2022/03/30 05:44:22;;;;;;;50.47;31.60;;;;;;;;;;6178593;28;20058;-67
2022/03/30 05:47:24;;;;;;;50.92;29.95;;;;;;;;;;6178392;28;20038;-67
2022/03/30 05:50:25;;;;;;;48.72;30.35;;;;;;;;;;6181616;28;20061;-67
2022/03/30 05:53:27;;;;;;;46.28;30.25;;;;;;;;;;6193390;28;20514;-67
2022/03/30 05:59:50;;;;;;;43.35;29.20;;;;;;;;;;6190294;28;20047;-67
2022/03/30 06:02:51;;;;;;;49.25;30.83;;;;;;;;;;6184027;28;20198;-67
2022/03/30 06:05:53;;;;;;;47.20;28.77;;;;;;;;;;6184886;28;20047;-67
2022/03/30 06:08:54;;;;;;;53.33;31.38;;;;;;;;;;6182574;28;20570;-67
2022/03/30 06:11:57;;;;;;;45.25;31.08;;;;;;;;;;6179935;28;20096;-68
2022/03/30 06:14:59;;;;;;;49.08;31.33;;;;;;;;;;6180158;28;20135;-68
2022/03/30 06:18:00;;;;;;;42.35;29.40;;;;;;;;;;6178589;28;20128;-68
2022/03/30 06:21:03;;;;;;;50.67;29.20;;;;;;;;;;6179574;28;20101;-68
2022/03/30 06:24:05;;;;;;;48.47;28.98;;;;;;;;;;6180016;28;20047;-68
2022/03/30 06:27:09;;;;;;;46.83;31.42;;;;;;;;;;6183214;28;20186;-67
2022/03/30 06:30:12;;;;;;;48.08;32.33;;;;;;;;;;6185102;28;20053;-68
2022/03/30 06:33:14;;;;;;;56.33;33.40;;;;;;;;;;6189208;28;20300;-68
2022/03/30 06:36:15;;;;;;;53.22;30.33;;;;;;;;;;6190655;28;20449;-66
2022/03/30 06:39:17;;;;;;;48.38;30.95;;;;;;;;;;6185802;28;20869;-71
2022/03/30 06:42:20;;;;;;;51.67;32.90;;;;;;;;;;6185213;28;20549;-69
2022/03/30 06:45:22;;;;;;;54.58;32.90;;;;;;;;;;6182570;28;20569;-68
2022/03/30 06:48:23;;;;;;;49.13;33.90;;;;;;;;;;6180305;28;20550;-68
2022/03/30 06:51:25;;;;;;;82.53;33.78;;;;;;;;;;6177989;28;20054;-74
2022/03/30 06:54:27;;;;;;;49.13;32.38;;;;;;;;;;6178749;28;20133;-71
2022/03/30 06:57:30;;;;;;;49.30;32.55;;;;;;;;;;6184333;28;20197;-71
2022/03/30 07:00:32;;;;;;;53.00;34.65;;;;;;;;;;6186050;28;20073;-73
2022/03/30 07:03:33;;;;;;;50.95;35.38;;;;;;;;;;6182760;28;20126;-73
2022/03/30 07:06:35;;;;;;;51.85;34.97;;;;;;;;;;6187848;28;20050;-72
2022/03/30 07:12:57;;;;;;;59.25;35.55;;;;;;;;;;6190840;28;20051;-72
2022/03/30 07:15:59;;;;;;;54.17;33.75;;;;;;;;;;6190321;28;20047;-72
2022/03/30 07:19:01;;;;;;;48.47;33.88;;;;;;;;;;6190938;28;20050;-72
2022/03/30 07:22:02;;;;;;;48.38;31.50;;;;;;;;;;6189074;28;20429;-73
2022/03/30 07:25:05;;;;;;;53.40;33.72;;;;;;;;;;6184682;28;20171;-71
2022/03/30 07:28:08;;;;;;;53.95;33.92;;;;;;;;;;6185841;28;20128;-72
2022/03/30 07:31:10;;;;;;;49.75;31.80;;;;;;;;;;6184022;28;20054;-70
2022/03/30 07:34:12;;;;;;;44.83;30.63;;;;;;;;;;6181617;28;20054;-70
2022/03/30 07:37:13;;;;;;;45.60;30.55;;;;;;;;;;6186654;28;20517;-70
2022/03/30 07:40:17;;;;;;;47.67;29.42;;;;;;;;;;6186109;28;20059;-70
2022/03/30 07:43:21;;;;;;;47.17;29.90;;;;;;;;;;6186090;28;20415;-71
2022/03/30 07:46:22;;;;;;;45.40;30.60;;;;;;;;;;6183991;28;20059;-71
2022/03/30 07:49:24;;;;;;;50.00;31.65;;;;;;;;;;6182205;28;20201;-70
2022/03/30 07:52:25;;;;;;;46.67;30.85;;;;;;;;;;6188157;28;20050;-71
2022/03/30 07:55:28;;;;;;;46.92;30.60;;;;;;;;;;6186284;28;20043;-69
2022/03/30 07:58:31;;;;;;;43.58;29.73;;;;;;;;;;6185185;28;20053;-69
2022/03/30 08:01:32;;;;;;;45.37;28.20;;;;;;;;;;6183717;28;20051;-70
2022/03/30 08:04:34;;;;;;;44.78;28.10;;;;;;;;;;6183439;28;20429;-70
2022/03/30 08:07:37;;;;;;;40.45;27.05;;;;;;;;;;6176586;28;20061;-70
2022/03/30 08:10:38;;;;;;;39.30;27.33;;;;;;;;;;6184111;28;20446;-70
2022/03/30 08:13:41;;;;;;;39.45;26.50;;;;;;;;;;6184917;28;20051;-70
2022/03/30 08:16:43;;;;;;;44.33;25.90;;;;;;;;;;6183302;28;20125;-71
2022/03/30 08:19:45;;;;;;;38.00;25.02;;;;;;;;;;6185067;28;20129;-71
2022/03/30 08:22:45;;;;;;;37.50;25.25;;;;;;;;;;6184858;28;20062;-71
2022/03/30 08:25:47;;;;;;;36.42;24.15;;;;;;;;;;6184867;28;20055;-68
2022/03/30 08:28:50;;;;;;;34.20;23.90;;;;;;;;;;6181466;28;20046;-69
2022/03/30 08:31:51;;;;;;;29.38;20.98;;;;;;;;;;6186669;28;20075;-70
2022/03/30 08:34:54;;;;;;;32.70;22.30;;;;;;;;;;6185919;28;20504;-70
2022/03/30 08:37:56;;;;;;;32.25;21.75;;;;;;;;;;6181479;28;20104;-72
2022/03/30 08:40:58;;;;;;;30.83;20.70;;;;;;;;;;6182821;28;20051;-68
2022/03/30 08:44:01;;;;;;;27.30;19.58;;;;;;;;;;6178752;28;20053;-69
2022/03/30 08:47:04;;;;;;;26.50;17.63;;;;;;;;;;6187985;28;20077;-70
2022/03/30 08:50:06;;;;;;;33.83;18.38;;;;;;;;;;6184415;28;20046;-71
2022/03/30 08:53:09;;;;;;;32.58;18.48;;;;;;;;;;6182739;28;20182;-72
2022/03/30 08:56:10;;;;;;;29.23;18.25;;;;;;;;;;6185186;28;20050;-69
2022/03/30 08:59:17;;;;;;;28.90;19.40;;;;;;;;;;6185277;28;20129;-67
2022/03/30 09:02:19;;;;;;;26.27;17.92;;;;;;;;;;6183083;28;20136;-69
2022/03/30 09:05:22;;;;;;;27.20;18.35;;;;;;;;;;6182611;28;20527;-69
2022/03/30 09:08:25;;;;;;;31.98;19.33;;;;;;;;;;6177601;28;20043;-69
2022/03/30 09:11:29;;;;;;;27.50;17.60;;;;;;;;;;6179904;28;20065;-69
2022/03/30 09:14:34;;;;;;;28.30;19.40;;;;;;;;;;6184281;28;20061;-68
2022/03/30 09:17:40;;;;;;;31.20;20.58;;;;;;;;;;6184582;28;20054;-68
2022/03/30 09:20:43;;;;;;;32.83;21.08;;;;;;;;;;6186766;28;20136;-68
2022/03/30 09:23:47;;;;;;;37.67;20.15;;;;;;;;;;6186913;28;20173;-69
2022/03/30 09:26:50;;;;;;;31.30;20.20;;;;;;;;;;6189282;28;20425;-69
2022/03/30 09:29:53;;;;;;;27.20;19.88;;;;;;;;;;6187743;28;20056;-69
2022/03/30 09:32:57;;;;;;;28.88;19.27;;;;;;;;;;6187021;28;20068;-68
2022/03/30 09:35:58;;;;;;;35.15;20.52;;;;;;;;;;6183653;28;20089;-69
2022/03/30 09:39:00;;;;;;;30.13;20.23;;;;;;;;;;6183604;28;20133;-70
2022/03/30 09:42:04;;;;;;;30.05;20.48;;;;;;;;;;6184266;28;20043;-70
2022/03/30 09:45:07;;;;;;;30.85;20.98;;;;;;;;;;6181099;28;20454;-69
2022/03/30 09:48:14;;;;;;;30.63;21.45;;;;;;;;;;6185231;28;20137;-70
2022/03/30 09:51:16;;;;;;;32.30;21.85;;;;;;;;;;6177999;28;20121;-69
2022/03/30 09:54:36;;;;;;;39.15;22.13;;;;;;;;;;6179154;28;20181;-72
2022/03/30 09:57:40;;;;;;;35.85;23.58;;;;;;;;;;6188953;28;20589;-71
2022/03/30 10:00:43;;;;;;;33.90;22.63;;;;;;;;;;6188171;28;20125;-71
2022/03/30 10:03:48;;;;;;;38.25;23.35;;;;;;;;;;6188090;28;20079;-70
2022/03/30 10:06:51;;;;;;;33.17;22.50;;;;;;;;;;6188321;28;20082;-70
2022/03/30 10:09:52;;;;;;;35.53;23.95;;;;;;;;;;6185182;28;20061;-70
2022/03/30 10:12:54;;;;;;;36.13;23.95;;;;;;;;;;6182796;28;20673;-70
2022/03/30 10:15:58;;;;;;;39.33;25.30;;;;;;;;;;6182135;28;20185;-71
2022/03/30 10:19:00;;;;;;;38.78;25.48;;;;;;;;;;6183062;28;20050;-71
2022/03/30 10:22:09;;;;;;;35.15;24.15;;;;;;;;;;6179260;28;20087;-71
2022/03/30 10:25:19;;;;;;;35.25;24.15;;;;;;;;;;6182284;28;20114;-72
2022/03/30 10:28:23;;;;;;;35.13;25.08;;;;;;;;;;6182341;28;20042;-72
2022/03/30 10:31:26;;;;;;;;;;;;;;;;;;6192012;28;20505;-72
2022/03/30 10:34:28;;;;;;;37.92;26.10;;;;;;;;;;6192792;28;19921;-72
2022/03/30 10:37:33;;;;;;;39.25;25.00;;;;;;;;;;6188776;28;20510;-71
2022/03/30 10:40:36;;;;;;;36.42;26.10;;;;;;;;;;6185162;28;20058;-71
2022/03/30 10:43:38;;;;;;;33.65;25.48;;;;;;;;;;6186256;28;20132;-71
2022/03/30 10:46:40;;;;;;;42.95;27.75;;;;;;;;;;6183795;28;20206;-71
2022/03/30 10:49:45;;;;;;;37.03;26.38;;;;;;;;;;6180204;28;20552;-71
2022/03/30 10:52:48;;;;;;;40.55;27.27;;;;;;;;;;6204739;28;20038;-72
2022/03/30 10:55:49;;;;;;;43.25;28.08;;;;;;;;;;6204934;28;20077;-71
2022/03/30 10:59:13;;;;;;;38.05;27.80;;;;;;;;;;6204013;28;20042;-71
2022/03/30 11:02:16;;;;;;;45.28;28.15;;;;;;;;;;6201301;28;20446;-71
2022/03/30 11:05:26;;;;;;;39.40;27.90;;;;;;;;;;6204781;28;20661;-70
2022/03/30 11:08:56;;;;;;;46.63;28.40;;;;;;;;;;6207177;28;20189;-70
2022/03/30 11:11:59;;;;;;;40.38;27.67;;;;;;;;;;6213270;28;20123;-71
2022/03/30 11:15:03;;;;;;;41.97;29.50;;;;;;;;;;6212297;28;20038;-71
2022/03/30 11:18:18;;;;;;;;;;;;;;;;;;6211629;28;20050;-73
2022/03/30 11:21:20;;;;;;;41.92;28.67;;;;;;;;;;6210678;28;20341;-71
2022/03/30 11:24:25;;;;;;;37.85;28.13;;;;;;;;;;6206278;28;20097;-71
2022/03/30 11:27:26;;;;;;;42.33;29.73;;;;;;;;;;6205989;28;20075;-70
2022/03/30 11:30:29;;;;;;;42.15;29.95;;;;;;;;;;6204329;28;20046;-73
2022/03/30 11:33:34;;;;;;;46.85;29.65;;;;;;;;;;6210105;28;20379;-71
2022/03/30 11:36:36;;;;;;;41.67;30.02;;;;;;;;;;6203494;28;20046;-72
2022/03/30 11:39:39;;;;;;;44.00;29.88;;;;;;;;;;6203534;28;20046;-74
2022/03/30 11:42:44;;;;;;;42.00;28.33;;;;;;;;;;6213319;28;20107;-71
2022/03/30 11:45:46;;;;;;;38.60;29.38;;;;;;;;;;6218553;28;20052;-73
2022/03/30 11:48:49;;;;;;;36.53;26.88;;;;;;;;;;6205998;28;20431;-73
2022/03/30 11:51:52;;;;;;;38.90;28.52;;;;;;;;;;6218488;28;20103;-72
2022/03/30 11:54:55;;;;;;;42.85;30.48;;;;;;;;;;6213847;28;20380;-73
2022/03/30 11:57:58;;;;;;;40.60;28.83;;;;;;;;;;6214201;28;20057;-77
2022/03/30 12:01:03;;;;;;;40.13;29.67;;;;;;;;;;6210557;28;20053;-71
2022/03/30 12:04:06;;;;;;;39.78;29.63;;;;;;;;;;6210832;28;20042;-66
2022/03/30 12:07:14;;;;;;;44.97;30.15;;;;;;;;;;6206445;28;20061;-68
2022/03/30 12:10:16;;;;;;;45.42;29.23;;;;;;;;;;6205542;28;20855;-69
2022/03/30 12:13:23;;;;;;;42.42;28.02;;;;;;;;;;6203759;28;20069;-69
2022/03/30 12:16:26;;;;;;;47.47;28.35;;;;;;;;;;6209513;28;20109;-70
2022/03/30 12:19:29;;;;;;;42.92;30.02;;;;;;;;;;6210019;28;20057;-70
2022/03/30 12:22:31;;;;;;;39.13;27.38;;;;;;;;;;6211999;28;20137;-70
2022/03/30 12:25:34;;;;;;;34.50;25.70;;;;;;;;;;6203835;28;20129;-70
2022/03/30 12:28:36;;;;;;;37.15;25.10;;;;;;;;;;6207301;28;20056;-69
2022/03/30 12:31:39;;;;;;;35.00;24.42;;;;;;;;;;6213784;28;20092;-70
2022/03/30 12:34:43;;;;;;;37.45;25.55;;;;;;;;;;6209239;28;20069;-70
2022/03/30 12:37:46;;;;;;;40.83;25.13;;;;;;;;;;6207879;28;20104;-70
2022/03/30 12:40:52;;;;;;;34.60;24.45;;;;;;;;;;6207331;28;20046;-70
2022/03/30 12:43:58;;;;;;;37.65;24.67;;;;;;;;;;6207216;28;20076;-70
2022/03/30 12:47:01;;;;;;;42.75;23.45;;;;;;;;;;6205112;28;20039;-70
2022/03/30 12:50:08;;;;;;;37.40;23.13;;;;;;;;;;6195372;28;20058;-69
2022/03/30 12:53:16;;;;;;;40.17;23.90;;;;;;;;;;6187228;28;20050;-70
2022/03/30 12:56:20;;;;;;;32.13;20.83;;;;;;;;;;6183562;28;20047;-70
2022/03/30 12:59:24;;;;;;;37.50;21.85;;;;;;;;;;6184681;28;20371;-70
2022/03/30 13:02:26;;;;;;;36.65;22.27;;;;;;;;;;6181259;28;20053;-71
2022/03/30 13:05:29;;;;;;;34.85;22.45;;;;;;;;;;6181225;28;20216;-70
2022/03/30 13:08:31;;;;;;;31.80;21.10;;;;;;;;;;6180278;28;20057;-71
2022/03/30 13:11:33;;;;;;;29.95;20.80;;;;;;;;;;6182459;28;20498;-70
2022/03/30 13:14:35;;;;;;;27.45;20.13;;;;;;;;;;6183248;28;20133;-71
2022/03/30 13:17:54;;;;;;;28.70;22.40;;;;;;;;;;6181832;28;20672;-71
2022/03/30 13:20:59;;;;;;;32.15;21.38;;;;;;;;;;6182779;28;20054;-70
2022/03/30 13:24:10;;;;;;;32.88;20.88;;;;;;;;;;6186572;28;20571;-70
2022/03/30 13:27:12;;;;;;;31.75;21.20;;;;;;;;;;6216723;28;20046;-70
2022/03/30 13:30:14;;;;;;;30.88;20.50;;;;;;;;;;6212205;28;20046;-71
2022/03/30 13:33:15;;;;;;;31.15;20.67;;;;;;;;;;6211301;28;20072;-71
2022/03/30 13:36:18;;;;;;;30.45;20.92;;;;;;;;;;6210332;28;20092;-71
2022/03/30 13:39:20;;;;;;;34.33;21.33;;;;;;;;;;6208755;28;20053;-71
2022/03/30 13:42:22;;;;;;;30.17;20.67;;;;;;;;;;6206500;28;20556;-71
2022/03/30 13:45:23;;;;;;;34.90;21.20;;;;;;;;;;6207434;28;20060;-71
2022/03/30 13:48:26;;;;;;;29.35;21.20;;;;;;;;;;6202682;28;20186;-70
2022/03/30 13:51:29;;;;;;;29.70;20.95;;;;;;;;;;6207170;28;20663;-71
2022/03/30 13:54:30;;;;;;;32.22;21.25;;;;;;;;;;6207903;28;20120;-70
2022/03/30 13:57:32;;;;;;;29.42;19.35;;;;;;;;;;6206283;28;20042;-70
2022/03/30 14:00:34;;;;;;;31.92;22.02;;;;;;;;;;6209700;28;20509;-72
2022/03/30 14:03:36;;;;;;;30.17;21.60;;;;;;;;;;6213215;28;20133;-71
2022/03/30 14:06:39;;;;;;;30.77;20.38;;;;;;;;;;6210671;28;20074;-70
2022/03/30 14:09:41;;;;;;;37.45;22.02;;;;;;;;;;6211003;28;20196;-71
2022/03/30 14:12:42;;;;;;;34.97;22.50;;;;;;;;;;6211987;28;20118;-70
2022/03/30 14:15:45;;;;;;;34.70;23.65;;;;;;;;;;6207783;28;21038;-70
2022/03/30 14:18:46;;;;;;;38.40;23.15;;;;;;;;;;6207013;28;20358;-70
2022/03/30 14:21:49;;;;;;;37.10;23.58;;;;;;;;;;6208335;28;20054;-71
2022/03/30 14:24:51;;;;;;;34.95;22.45;;;;;;;;;;6205288;28;20185;-70
2022/03/30 14:27:52;;;;;;;36.47;23.02;;;;;;;;;;6205510;28;20130;-71
2022/03/30 14:30:54;;;;;;;32.40;23.20;;;;;;;;;;6209067;28;20072;-70
2022/03/30 14:33:55;;;;;;;32.83;22.20;;;;;;;;;;6209734;28;20139;-71
2022/03/30 14:36:58;;;;;;;33.20;22.55;;;;;;;;;;6212745;28;20370;-71
2022/03/30 14:40:00;;;;;;;33.25;24.45;;;;;;;;;;6217728;28;20065;-71
2022/03/30 14:43:02;;;;;;;35.08;22.67;;;;;;;;;;6213850;28;20177;-72
2022/03/30 14:46:03;;;;;;;35.30;22.27;;;;;;;;;;6209851;28;20163;-72
2022/03/30 14:49:05;;;;;;;33.03;21.77;;;;;;;;;;6209295;28;20131;-73
2022/03/30 14:52:09;;;;;;;34.97;22.15;;;;;;;;;;6209625;28;20133;-73
2022/03/30 14:55:11;;;;;;;;;;;;;;;;;;6209115;28;20072;-72
2022/03/30 14:58:12;;;;;;;38.05;22.38;;;;;;;;;;6210137;28;19922;-72
2022/03/30 15:01:15;;;;;;;37.00;21.90;;;;;;;;;;6209641;28;20195;-73
2022/03/30 15:04:16;;;;;;;31.23;22.20;;;;;;;;;;6206648;28;20120;-72
2022/03/30 15:07:19;;;;;;;31.10;21.88;;;;;;;;;;6205185;28;20555;-73
2022/03/30 15:10:21;;;;;;;41.67;24.48;;;;;;;;;;6214461;28;20755;-73
2022/03/30 15:13:23;;;;;;;35.38;23.73;;;;;;;;;;6220811;28;20462;-72
2022/03/30 15:16:25;;;;;;;34.25;23.40;;;;;;;;;;6216851;28;20583;-72
2022/03/30 15:19:26;;;;;;;35.00;23.48;;;;;;;;;;6220238;28;20722;-72
2022/03/30 15:22:29;;;;;;;35.42;23.42;;;;;;;;;;6214043;28;20515;-72
2022/03/30 15:25:31;;;;;;;38.90;23.23;;;;;;;;;;6213575;28;20056;-71
2022/03/30 15:28:34;;;;;;;37.28;23.23;;;;;;;;;;6212590;28;20129;-72
2022/03/30 15:31:35;;;;;;;35.30;23.00;;;;;;;;;;6212703;28;20073;-72
2022/03/30 15:34:37;;;;;;;39.05;23.98;;;;;;;;;;6212553;28;20128;-72
2022/03/30 15:37:40;;;;;;;38.40;24.20;;;;;;;;;;6212186;28;20149;-72
2022/03/30 15:40:41;;;;;;;34.38;23.75;;;;;;;;;;6207014;28;20042;-72
2022/03/30 15:43:43;;;;;;;34.85;24.08;;;;;;;;;;6208793;28;20073;-73
2022/03/30 15:46:46;;;;;;;35.13;23.92;;;;;;;;;;6210194;28;20057;-71
2022/03/30 15:49:47;;;;;;;35.22;23.48;;;;;;;;;;6203707;28;20058;-72
2022/03/30 15:52:50;;;;;;;34.03;23.05;;;;;;;;;;6214459;28;20510;-72
2022/03/30 15:55:52;;;;;;;30.63;22.52;;;;;;;;;;6217158;28;20050;-72
2022/03/30 15:58:53;;;;;;;39.03;22.42;;;;;;;;;;6214211;28;20046;-72
2022/03/30 16:01:55;;;;;;;31.90;21.55;;;;;;;;;;6214073;28;20089;-71
2022/03/30 16:04:57;;;;;;;29.23;20.88;;;;;;;;;;6212083;28;20042;-72
2022/03/30 16:14:38;;;;;;;30.60;21.60;;;;;;;;;;6206557;28;20559;-73
2022/03/30 16:17:40;;;;;;;32.47;21.33;;;;;;;;;;6206567;28;20046;-73
2022/03/30 16:20:42;;;;;;;31.77;21.75;;;;;;;;;;6214810;28;20569;-74
2022/03/30 16:23:45;;;;;;;33.10;22.38;;;;;;;;;;6215358;28;20057;-72
2022/03/30 16:26:47;;;;;;;32.65;21.63;;;;;;;;;;6208972;28;20050;-72
2022/03/30 16:29:49;;;;;;;35.63;22.38;;;;;;;;;;6204768;28;20053;-74
2022/03/30 16:32:50;;;;;;;34.97;22.98;;;;;;;;;;6215074;28;20179;-73
2022/03/30 16:35:52;;;;;;;30.63;21.35;;;;;;;;;;6214909;28;20053;-70
2022/03/30 16:38:55;;;;;;;28.10;21.48;;;;;;;;;;6213211;28;25223;-69
2022/03/30 16:41:57;;;;;;;30.40;21.50;;;;;;;;;;6210791;28;20050;-71
2022/03/30 16:44:59;;;;;;;34.78;22.13;;;;;;;;;;6207532;28;20632;-70
2022/03/30 16:48:04;;;;;;;31.63;21.05;;;;;;;;;;6206225;28;20057;-68
2022/03/30 16:51:07;;;;;;;30.55;21.80;;;;;;;;;;6205150;28;20489;-71
2022/03/30 16:54:10;;;;;;;30.92;21.30;;;;;;;;;;6204580;28;20545;-71
2022/03/30 16:57:12;;;;;;;30.92;21.33;;;;;;;;;;6207311;28;20052;-72
2022/03/30 17:00:14;;;;;;;32.55;22.25;;;;;;;;;;6207003;28;20125;-72
2022/03/30 17:03:16;;;;;;;43.65;22.73;;;;;;;;;;6207688;28;20421;-70
2022/03/30 17:06:19;;;;;;;31.38;23.60;;;;;;;;;;6205964;28;20061;-72
2022/03/30 17:12:42;;;;;;;38.53;23.70;;;;;;;;;;6208859;28;20050;-70
2022/03/30 17:15:44;;;;;;;35.75;24.20;;;;;;;;;;6210061;28;20043;-70
2022/03/30 17:18:46;;;;;;;38.92;22.95;;;;;;;;;;6209759;28;20144;-70
2022/03/30 17:21:50;;;;;;;34.03;23.63;;;;;;;;;;6209284;28;20061;-70
2022/03/30 17:24:53;;;;;;;32.85;23.00;;;;;;;;;;6210874;28;20077;-71
2022/03/30 17:27:55;;;;;;;32.73;22.53;;;;;;;;;;6207980;28;20053;-70
2022/03/30 17:30:57;;;;;;;34.90;24.20;;;;;;;;;;6213909;28;20464;-70
2022/03/30 17:33:58;;;;;;;37.70;23.83;;;;;;;;;;6211936;28;20099;-70
2022/03/30 17:37:00;;;;;;;36.45;23.70;;;;;;;;;;6209383;28;23170;-70
2022/03/30 17:40:04;;;;;;;39.75;25.17;;;;;;;;;;6208193;28;20042;-70
2022/03/30 17:43:06;;;;;;;36.17;24.45;;;;;;;;;;6206996;28;20076;-70
2022/03/30 17:46:07;;;;;;;37.63;24.85;;;;;;;;;;6206100;28;20500;-72
2022/03/30 17:52:31;;;;;;;35.50;25.15;;;;;;;;;;6208304;28;20050;-70
2022/03/30 17:55:36;;;;;;;39.20;28.47;;;;;;;;;;6206595;28;20145;-70
2022/03/30 17:58:38;;;;;;;43.65;26.80;;;;;;;;;;6206302;28;20058;-69
2022/03/30 18:01:40;;;;;;;37.78;26.48;;;;;;;;;;6201161;28;20159;-70
2022/03/30 18:04:41;;;;;;;42.38;26.55;;;;;;;;;;6209703;28;20592;-71
2022/03/30 18:07:43;;;;;;;37.22;25.90;;;;;;;;;;6209434;28;20053;-70